sensor_id;sensor_type;location;lat;lon;timestamp;temperature;humidity
3416;DHT22;1721;51.238;9.562;2023-08-06T00:02:19;17.00;99.60
3416;DHT22;1721;51.238;9.562;2023-08-06T00:04:45;16.80;99.30
3416;DHT22;1721;51.238;9.562;2023-08-06T00:07:10;16.60;99.90
3416;DHT22;1721;51.238;9.562;2023-08-06T00:09:36;16.40;99.90
3416;DHT22;1721;51.238;9.562;2023-08-06T00:12:02;16.50;99.90
3416;DHT22;1721;51.238;9.562;2023-08-06T00:14:27;16.50;99.90
3416;DHT22;1721;51.238;9.562;2023-08-06T00:16:53;16.50;99.90
3416;DHT22;1721;51.238;9.562;2023-08-06T00:19:18;16.60;99.90
3416;DHT22;1721;51.238;9.562;2023-08-06T00:21:44;16.40;99.90
3416;DHT22;1721;51.238;9.562;2023-08-06T00:24:09;16.40;99.90
3416;DHT22;1721;51.238;9.562;2023-08-06T00:26:35;16.40;99.90
3416;DHT22;1721;51.238;9.562;2023-08-06T00:29:00;16.30;99.90
3416;DHT22;1721;51.238;9.562;2023-08-06T00:31:26;16.30;99.90
3416;DHT22;1721;51.238;9.562;2023-08-06T00:33:51;16.40;99.90
3416;DHT22;1721;51.238;9.562;2023-08-06T00:36:17;16.40;99.90
3416;DHT22;1721;51.238;9.562;2023-08-06T00:38:42;16.50;99.90
3416;DHT22;1721;51.238;9.562;2023-08-06T00:41:08;16.60;99.90
3416;DHT22;1721;51.238;9.562;2023-08-06T00:43:33;16.70;99.90
3416;DHT22;1721;51.238;9.562;2023-08-06T00:45:59;16.80;99.90
3416;DHT22;1721;51.238;9.562;2023-08-06T00:48:25;16.90;99.90
3416;DHT22;1721;51.238;9.562;2023-08-06T00:50:51;17.00;99.90
3416;DHT22;1721;51.238;9.562;2023-08-06T00:53:17;17.00;99.50
3416;DHT22;1721;51.238;9.562;2023-08-06T00:55:44;17.10;99.50
3416;DHT22;1721;51.238;9.562;2023-08-06T00:58:10;17.10;99.60
3416;DHT22;1721;51.238;9.562;2023-08-06T01:00:35;17.10;99.30
3416;DHT22;1721;51.238;9.562;2023-08-06T01:03:01;17.10;99.50
3416;DHT22;1721;51.238;9.562;2023-08-06T01:05:27;17.10;99.80
3416;DHT22;1721;51.238;9.562;2023-08-06T01:14:04;17.00;99.30
3416;DHT22;1721;51.238;9.562;2023-08-06T01:16:32;16.80;99.10
3416;DHT22;1721;51.238;9.562;2023-08-06T01:18:58;16.80;99.60
3416;DHT22;1721;51.238;9.562;2023-08-06T01:21:24;16.80;99.60
3416;DHT22;1721;51.238;9.562;2023-08-06T01:23:50;16.90;99.60
3416;DHT22;1721;51.238;9.562;2023-08-06T01:26:27;16.80;99.50
3416;DHT22;1721;51.238;9.562;2023-08-06T01:28:59;16.70;99.50
3416;DHT22;1721;51.238;9.562;2023-08-06T01:31:30;16.70;99.40
3416;DHT22;1721;51.238;9.562;2023-08-06T01:33:58;16.50;99.90
3416;DHT22;1721;51.238;9.562;2023-08-06T01:36:25;16.40;99.90
3416;DHT22;1721;51.238;9.562;2023-08-06T01:38:52;16.40;99.90
3416;DHT22;1721;51.238;9.562;2023-08-06T01:41:18;16.40;99.90
3416;DHT22;1721;51.238;9.562;2023-08-06T01:43:44;16.50;99.90
3416;DHT22;1721;51.238;9.562;2023-08-06T01:46:09;16.50;99.90
3416;DHT22;1721;51.238;9.562;2023-08-06T01:48:35;16.40;99.90
3416;DHT22;1721;51.238;9.562;2023-08-06T01:51:01;16.30;99.90
3416;DHT22;1721;51.238;9.562;2023-08-06T01:53:28;16.50;99.90
3416;DHT22;1721;51.238;9.562;2023-08-06T01:55:54;16.50;99.90
3416;DHT22;1721;51.238;9.562;2023-08-06T01:58:20;16.50;99.90
3416;DHT22;1721;51.238;9.562;2023-08-06T02:00:45;16.60;99.90
3416;DHT22;1721;51.238;9.562;2023-08-06T02:03:11;16.50;99.90
3416;DHT22;1721;51.238;9.562;2023-08-06T02:05:36;16.50;99.90
3416;DHT22;1721;51.238;9.562;2023-08-06T02:08:02;16.60;99.90
3416;DHT22;1721;51.238;9.562;2023-08-06T02:10:27;16.50;99.90
3416;DHT22;1721;51.238;9.562;2023-08-06T02:12:53;16.50;99.90
3416;DHT22;1721;51.238;9.562;2023-08-06T02:15:18;16.50;99.90
3416;DHT22;1721;51.238;9.562;2023-08-06T02:17:44;16.40;99.90
3416;DHT22;1721;51.238;9.562;2023-08-06T02:20:09;16.60;99.90
3416;DHT22;1721;51.238;9.562;2023-08-06T02:22:35;16.50;99.90
3416;DHT22;1721;51.238;9.562;2023-08-06T02:25:00;16.60;99.90
3416;DHT22;1721;51.238;9.562;2023-08-06T02:27:26;16.60;99.90
3416;DHT22;1721;51.238;9.562;2023-08-06T02:29:51;16.60;99.90
3416;DHT22;1721;51.238;9.562;2023-08-06T02:32:17;16.70;99.90
3416;DHT22;1721;51.238;9.562;2023-08-06T02:34:42;16.80;99.90
3416;DHT22;1721;51.238;9.562;2023-08-06T02:37:08;16.80;99.90
3416;DHT22;1721;51.238;9.562;2023-08-06T02:39:34;16.80;99.90
3416;DHT22;1721;51.238;9.562;2023-08-06T02:42:00;16.80;99.90
3416;DHT22;1721;51.238;9.562;2023-08-06T02:44:29;16.80;99.90
3416;DHT22;1721;51.238;9.562;2023-08-06T02:46:54;16.70;99.90
3416;DHT22;1721;51.238;9.562;2023-08-06T02:49:20;16.60;99.90
3416;DHT22;1721;51.238;9.562;2023-08-06T02:51:45;16.60;99.90
3416;DHT22;1721;51.238;9.562;2023-08-06T02:54:11;16.70;99.90
3416;DHT22;1721;51.238;9.562;2023-08-06T02:56:36;16.70;99.90
3416;DHT22;1721;51.238;9.562;2023-08-06T02:59:02;16.40;99.90
3416;DHT22;1721;51.238;9.562;2023-08-06T03:01:27;16.40;99.90
3416;DHT22;1721;51.238;9.562;2023-08-06T03:03:54;16.40;99.90
3416;DHT22;1721;51.238;9.562;2023-08-06T03:06:19;16.30;99.90
3416;DHT22;1721;51.238;9.562;2023-08-06T03:08:45;16.20;99.90
3416;DHT22;1721;51.238;9.562;2023-08-06T03:11:10;16.20;99.90
3416;DHT22;1721;51.238;9.562;2023-08-06T03:13:36;16.20;99.90
3416;DHT22;1721;51.238;9.562;2023-08-06T03:16:01;16.20;99.90
3416;DHT22;1721;51.238;9.562;2023-08-06T03:18:27;16.10;99.90
3416;DHT22;1721;51.238;9.562;2023-08-06T03:20:53;16.10;99.90
3416;DHT22;1721;51.238;9.562;2023-08-06T03:23:18;16.10;99.90
3416;DHT22;1721;51.238;9.562;2023-08-06T03:25:44;16.20;99.90
3416;DHT22;1721;51.238;9.562;2023-08-06T03:28:10;16.20;99.90
3416;DHT22;1721;51.238;9.562;2023-08-06T03:30:36;16.30;99.90
3416;DHT22;1721;51.238;9.562;2023-08-06T03:33:01;16.30;99.90
3416;DHT22;1721;51.238;9.562;2023-08-06T03:35:27;16.40;99.90
3416;DHT22;1721;51.238;9.562;2023-08-06T03:37:52;16.40;99.90
3416;DHT22;1721;51.238;9.562;2023-08-06T03:40:18;16.50;99.90
3416;DHT22;1721;51.238;9.562;2023-08-06T03:42:43;16.50;99.90
3416;DHT22;1721;51.238;9.562;2023-08-06T03:45:09;16.40;99.90
3416;DHT22;1721;51.238;9.562;2023-08-06T03:47:34;16.50;99.90
3416;DHT22;1721;51.238;9.562;2023-08-06T03:50:00;16.50;99.90
3416;DHT22;1721;51.238;9.562;2023-08-06T03:52:26;16.40;99.90
3416;DHT22;1721;51.238;9.562;2023-08-06T03:54:51;16.40;99.90
3416;DHT22;1721;51.238;9.562;2023-08-06T03:57:17;16.50;99.90
3416;DHT22;1721;51.238;9.562;2023-08-06T03:59:43;16.50;99.90
3416;DHT22;1721;51.238;9.562;2023-08-06T04:02:08;16.40;99.90
3416;DHT22;1721;51.238;9.562;2023-08-06T04:04:34;16.30;99.90
3416;DHT22;1721;51.238;9.562;2023-08-06T04:06:59;16.40;99.90
3416;DHT22;1721;51.238;9.562;2023-08-06T04:09:25;16.50;99.90
3416;DHT22;1721;51.238;9.562;2023-08-06T04:11:50;16.50;99.90
3416;DHT22;1721;51.238;9.562;2023-08-06T04:14:16;16.50;99.90
3416;DHT22;1721;51.238;9.562;2023-08-06T04:16:41;16.60;99.90
3416;DHT22;1721;51.238;9.562;2023-08-06T04:19:07;16.70;99.90
3416;DHT22;1721;51.238;9.562;2023-08-06T04:21:32;16.70;99.90
3416;DHT22;1721;51.238;9.562;2023-08-06T04:23:59;16.80;99.90
3416;DHT22;1721;51.238;9.562;2023-08-06T04:26:24;16.70;99.90
3416;DHT22;1721;51.238;9.562;2023-08-06T04:28:50;16.60;99.90
3416;DHT22;1721;51.238;9.562;2023-08-06T04:31:15;16.60;99.90
3416;DHT22;1721;51.238;9.562;2023-08-06T04:33:42;16.60;99.90
3416;DHT22;1721;51.238;9.562;2023-08-06T04:36:07;16.50;99.90
3416;DHT22;1721;51.238;9.562;2023-08-06T04:38:33;16.60;99.90
3416;DHT22;1721;51.238;9.562;2023-08-06T04:41:01;16.50;99.90
3416;DHT22;1721;51.238;9.562;2023-08-06T04:43:28;16.40;99.90
3416;DHT22;1721;51.238;9.562;2023-08-06T04:45:54;16.50;99.90
3416;DHT22;1721;51.238;9.562;2023-08-06T04:48:20;16.50;99.90
3416;DHT22;1721;51.238;9.562;2023-08-06T04:50:46;16.50;99.90
3416;DHT22;1721;51.238;9.562;2023-08-06T04:53:13;16.60;99.90
3416;DHT22;1721;51.238;9.562;2023-08-06T04:55:39;16.60;99.90
3416;DHT22;1721;51.238;9.562;2023-08-06T04:58:04;16.60;99.90
3416;DHT22;1721;51.238;9.562;2023-08-06T05:00:30;16.40;99.90
3416;DHT22;1721;51.238;9.562;2023-08-06T05:02:56;16.40;99.90
3416;DHT22;1721;51.238;9.562;2023-08-06T05:05:21;16.50;99.90
3416;DHT22;1721;51.238;9.562;2023-08-06T05:07:49;16.40;99.90
3416;DHT22;1721;51.238;9.562;2023-08-06T05:10:15;16.40;99.90
3416;DHT22;1721;51.238;9.562;2023-08-06T05:12:41;16.50;99.90
3416;DHT22;1721;51.238;9.562;2023-08-06T05:15:06;16.60;99.90
3416;DHT22;1721;51.238;9.562;2023-08-06T05:17:32;16.70;99.90
3416;DHT22;1721;51.238;9.562;2023-08-06T05:19:58;16.90;99.90
3416;DHT22;1721;51.238;9.562;2023-08-06T05:22:23;17.00;99.90
3416;DHT22;1721;51.238;9.562;2023-08-06T05:24:49;16.90;99.90
3416;DHT22;1721;51.238;9.562;2023-08-06T05:27:14;17.00;99.90
3416;DHT22;1721;51.238;9.562;2023-08-06T05:29:40;17.20;99.90
3416;DHT22;1721;51.238;9.562;2023-08-06T05:32:05;17.40;99.90
3416;DHT22;1721;51.238;9.562;2023-08-06T05:34:31;17.50;99.90
3416;DHT22;1721;51.238;9.562;2023-08-06T05:36:57;17.50;99.90
3416;DHT22;1721;51.238;9.562;2023-08-06T05:39:22;17.70;99.90
3416;DHT22;1721;51.238;9.562;2023-08-06T05:41:48;17.80;99.90
3416;DHT22;1721;51.238;9.562;2023-08-06T05:44:13;17.80;99.90
3416;DHT22;1721;51.238;9.562;2023-08-06T05:46:39;17.70;99.90
3416;DHT22;1721;51.238;9.562;2023-08-06T05:49:04;17.60;99.90
3416;DHT22;1721;51.238;9.562;2023-08-06T05:51:30;17.60;99.90
3416;DHT22;1721;51.238;9.562;2023-08-06T05:53:56;17.70;99.90
3416;DHT22;1721;51.238;9.562;2023-08-06T05:56:21;17.70;99.90
3416;DHT22;1721;51.238;9.562;2023-08-06T05:58:47;17.70;99.90
3416;DHT22;1721;51.238;9.562;2023-08-06T06:01:13;17.90;99.90
3416;DHT22;1721;51.238;9.562;2023-08-06T06:03:38;17.80;99.90
3416;DHT22;1721;51.238;9.562;2023-08-06T06:06:04;17.90;99.90
3416;DHT22;1721;51.238;9.562;2023-08-06T06:08:29;18.00;99.90
3416;DHT22;1721;51.238;9.562;2023-08-06T06:10:55;18.10;99.90
3416;DHT22;1721;51.238;9.562;2023-08-06T06:13:20;18.20;99.90
3416;DHT22;1721;51.238;9.562;2023-08-06T06:15:46;18.30;99.30
3416;DHT22;1721;51.238;9.562;2023-08-06T06:18:13;18.30;98.70
3416;DHT22;1721;51.238;9.562;2023-08-06T06:20:38;18.30;99.20
3416;DHT22;1721;51.238;9.562;2023-08-06T06:23:04;18.10;99.00
3416;DHT22;1721;51.238;9.562;2023-08-06T06:25:29;18.10;99.10
3416;DHT22;1721;51.238;9.562;2023-08-06T06:27:55;18.00;99.40
3416;DHT22;1721;51.238;9.562;2023-08-06T06:30:21;17.90;99.20
3416;DHT22;1721;51.238;9.562;2023-08-06T06:32:47;17.90;99.10
3416;DHT22;1721;51.238;9.562;2023-08-06T06:35:12;18.00;99.80
3416;DHT22;1721;51.238;9.562;2023-08-06T06:37:38;17.90;99.80
3416;DHT22;1721;51.238;9.562;2023-08-06T06:40:04;17.90;99.90
3416;DHT22;1721;51.238;9.562;2023-08-06T06:42:29;17.90;99.80
3416;DHT22;1721;51.238;9.562;2023-08-06T06:44:55;17.90;99.30
3416;DHT22;1721;51.238;9.562;2023-08-06T06:47:20;18.00;99.90
3416;DHT22;1721;51.238;9.562;2023-08-06T06:49:46;18.10;99.80
3416;DHT22;1721;51.238;9.562;2023-08-06T06:52:11;18.10;99.90
3416;DHT22;1721;51.238;9.562;2023-08-06T06:54:37;18.10;99.20
3416;DHT22;1721;51.238;9.562;2023-08-06T06:57:03;18.00;99.70
3416;DHT22;1721;51.238;9.562;2023-08-06T06:59:28;18.00;99.60
3416;DHT22;1721;51.238;9.562;2023-08-06T07:01:54;18.20;99.90
3416;DHT22;1721;51.238;9.562;2023-08-06T07:04:19;18.10;99.40
3416;DHT22;1721;51.238;9.562;2023-08-06T07:06:45;18.00;99.50
3416;DHT22;1721;51.238;9.562;2023-08-06T07:09:10;18.10;99.50
3416;DHT22;1721;51.238;9.562;2023-08-06T07:11:36;18.10;99.10
3416;DHT22;1721;51.238;9.562;2023-08-06T07:14:01;18.10;99.30
3416;DHT22;1721;51.238;9.562;2023-08-06T07:16:27;18.10;99.50
3416;DHT22;1721;51.238;9.562;2023-08-06T07:18:54;18.10;99.70
3416;DHT22;1721;51.238;9.562;2023-08-06T07:21:20;18.10;99.70
3416;DHT22;1721;51.238;9.562;2023-08-06T07:23:45;17.90;99.30
3416;DHT22;1721;51.238;9.562;2023-08-06T07:26:11;17.90;99.90
3416;DHT22;1721;51.238;9.562;2023-08-06T07:28:37;17.90;99.90
3416;DHT22;1721;51.238;9.562;2023-08-06T07:31:03;18.10;99.90
3416;DHT22;1721;51.238;9.562;2023-08-06T07:33:28;18.40;99.90
3416;DHT22;1721;51.238;9.562;2023-08-06T07:35:54;18.60;99.30
3416;DHT22;1721;51.238;9.562;2023-08-06T07:38:20;18.80;99.40
3416;DHT22;1721;51.238;9.562;2023-08-06T07:40:45;19.00;99.40
3416;DHT22;1721;51.238;9.562;2023-08-06T07:43:11;19.10;98.60
3416;DHT22;1721;51.238;9.562;2023-08-06T07:45:37;19.30;98.30
3416;DHT22;1721;51.238;9.562;2023-08-06T07:48:03;19.50;99.00
3416;DHT22;1721;51.238;9.562;2023-08-06T07:50:29;19.80;98.30
3416;DHT22;1721;51.238;9.562;2023-08-06T07:52:55;20.00;97.50
3416;DHT22;1721;51.238;9.562;2023-08-06T07:55:20;20.20;96.80
3416;DHT22;1721;51.238;9.562;2023-08-06T07:57:46;20.40;97.30
3416;DHT22;1721;51.238;9.562;2023-08-06T08:00:12;20.50;96.10
3416;DHT22;1721;51.238;9.562;2023-08-06T08:02:37;20.60;95.90
3416;DHT22;1721;51.238;9.562;2023-08-06T08:05:03;20.70;96.40
3416;DHT22;1721;51.238;9.562;2023-08-06T08:07:29;20.90;95.60
3416;DHT22;1721;51.238;9.562;2023-08-06T08:09:56;21.10;95.00
3416;DHT22;1721;51.238;9.562;2023-08-06T08:12:22;21.20;95.20
3416;DHT22;1721;51.238;9.562;2023-08-06T08:14:47;21.30;95.80
3416;DHT22;1721;51.238;9.562;2023-08-06T08:17:13;21.60;95.00
3416;DHT22;1721;51.238;9.562;2023-08-06T08:19:40;21.50;94.20
3416;DHT22;1721;51.238;9.562;2023-08-06T08:22:06;21.60;93.90
3416;DHT22;1721;51.238;9.562;2023-08-06T08:24:31;21.70;94.60
3416;DHT22;1721;51.238;9.562;2023-08-06T08:26:57;21.70;95.00
3416;DHT22;1721;51.238;9.562;2023-08-06T08:29:22;21.90;94.70
3416;DHT22;1721;51.238;9.562;2023-08-06T08:31:48;21.70;93.10
3416;DHT22;1721;51.238;9.562;2023-08-06T08:34:17;21.70;93.30
3416;DHT22;1721;51.238;9.562;2023-08-06T08:36:42;21.60;94.30
3416;DHT22;1721;51.238;9.562;2023-08-06T08:39:08;21.80;94.00
3416;DHT22;1721;51.238;9.562;2023-08-06T08:41:35;21.80;94.00
3416;DHT22;1721;51.238;9.562;2023-08-06T08:44:01;21.80;93.50
3416;DHT22;1721;51.238;9.562;2023-08-06T08:46:29;21.80;93.20
3416;DHT22;1721;51.238;9.562;2023-08-06T08:48:56;21.90;93.30
3416;DHT22;1721;51.238;9.562;2023-08-06T08:51:22;21.80;93.60
3416;DHT22;1721;51.238;9.562;2023-08-06T08:53:49;21.60;92.90
3416;DHT22;1721;51.238;9.562;2023-08-06T08:56:19;21.60;92.90
3416;DHT22;1721;51.238;9.562;2023-08-06T08:58:44;21.80;92.50
3416;DHT22;1721;51.238;9.562;2023-08-06T09:01:10;22.00;93.20
3416;DHT22;1721;51.238;9.562;2023-08-06T09:03:36;21.80;93.90
3416;DHT22;1721;51.238;9.562;2023-08-06T09:06:03;21.80;94.30
3416;DHT22;1721;51.238;9.562;2023-08-06T09:08:36;21.60;93.40
3416;DHT22;1721;51.238;9.562;2023-08-06T09:11:03;21.40;93.80
3416;DHT22;1721;51.238;9.562;2023-08-06T09:13:29;21.10;94.20
3416;DHT22;1721;51.238;9.562;2023-08-06T09:15:55;20.90;93.80
3416;DHT22;1721;51.238;9.562;2023-08-06T09:18:30;21.00;94.30
3416;DHT22;1721;51.238;9.562;2023-08-06T09:20:56;21.00;94.20
3416;DHT22;1721;51.238;9.562;2023-08-06T09:23:32;20.90;94.40
3416;DHT22;1721;51.238;9.562;2023-08-06T09:25:59;21.10;94.50
3416;DHT22;1721;51.238;9.562;2023-08-06T09:28:36;21.30;94.40
3416;DHT22;1721;51.238;9.562;2023-08-06T09:31:02;21.50;94.10
3416;DHT22;1721;51.238;9.562;2023-08-06T09:33:29;21.70;93.70
3416;DHT22;1721;51.238;9.562;2023-08-06T09:35:55;21.90;93.60
3416;DHT22;1721;51.238;9.562;2023-08-06T09:38:20;22.00;93.20
3416;DHT22;1721;51.238;9.562;2023-08-06T09:40:47;22.00;92.30
3416;DHT22;1721;51.238;9.562;2023-08-06T09:43:12;22.10;92.60
3416;DHT22;1721;51.238;9.562;2023-08-06T09:45:39;22.30;93.00
3416;DHT22;1721;51.238;9.562;2023-08-06T09:48:06;22.40;93.40
3416;DHT22;1721;51.238;9.562;2023-08-06T09:50:35;22.40;92.60
3416;DHT22;1721;51.238;9.562;2023-08-06T09:53:03;22.30;92.30
3416;DHT22;1721;51.238;9.562;2023-08-06T09:55:29;22.40;92.80
3416;DHT22;1721;51.238;9.562;2023-08-06T09:57:55;22.50;92.00
3416;DHT22;1721;51.238;9.562;2023-08-06T10:00:22;22.70;92.10
3416;DHT22;1721;51.238;9.562;2023-08-06T10:02:49;22.80;92.40
3416;DHT22;1721;51.238;9.562;2023-08-06T10:05:17;22.90;92.70
3416;DHT22;1721;51.238;9.562;2023-08-06T10:07:44;22.90;92.70
3416;DHT22;1721;51.238;9.562;2023-08-06T10:10:10;22.70;93.20
3416;DHT22;1721;51.238;9.562;2023-08-06T10:12:40;22.70;92.70
3416;DHT22;1721;51.238;9.562;2023-08-06T10:15:12;22.70;92.60
3416;DHT22;1721;51.238;9.562;2023-08-06T10:17:38;22.60;92.20
3416;DHT22;1721;51.238;9.562;2023-08-06T10:20:05;22.30;92.50
3416;DHT22;1721;51.238;9.562;2023-08-06T10:22:33;22.30;92.00
3416;DHT22;1721;51.238;9.562;2023-08-06T10:25:00;22.20;93.30
3416;DHT22;1721;51.238;9.562;2023-08-06T10:27:40;22.30;93.90
3416;DHT22;1721;51.238;9.562;2023-08-06T10:30:24;22.40;93.90
3416;DHT22;1721;51.238;9.562;2023-08-06T10:33:01;22.60;94.20
3416;DHT22;1721;51.238;9.562;2023-08-06T10:35:40;22.60;93.70
3416;DHT22;1721;51.238;9.562;2023-08-06T10:38:16;22.50;92.20
3416;DHT22;1721;51.238;9.562;2023-08-06T10:43:30;22.40;92.80
3416;DHT22;1721;51.238;9.562;2023-08-06T10:45:57;22.40;92.40
3416;DHT22;1721;51.238;9.562;2023-08-06T10:48:34;22.30;91.80
3416;DHT22;1721;51.238;9.562;2023-08-06T10:51:02;22.30;92.00
3416;DHT22;1721;51.238;9.562;2023-08-06T10:53:28;22.30;92.40
3416;DHT22;1721;51.238;9.562;2023-08-06T10:55:53;22.30;92.20
3416;DHT22;1721;51.238;9.562;2023-08-06T10:58:19;22.40;91.10
3416;DHT22;1721;51.238;9.562;2023-08-06T11:00:45;22.40;90.70
3416;DHT22;1721;51.238;9.562;2023-08-06T11:03:11;22.40;91.30
3416;DHT22;1721;51.238;9.562;2023-08-06T11:05:37;22.50;91.90
3416;DHT22;1721;51.238;9.562;2023-08-06T11:08:02;22.30;91.00
3416;DHT22;1721;51.238;9.562;2023-08-06T11:10:28;22.20;91.00
3416;DHT22;1721;51.238;9.562;2023-08-06T11:12:53;22.10;90.60
3416;DHT22;1721;51.238;9.562;2023-08-06T11:15:20;22.20;90.70
3416;DHT22;1721;51.238;9.562;2023-08-06T11:17:46;22.50;90.60
3416;DHT22;1721;51.238;9.562;2023-08-06T11:20:12;22.60;91.70
3416;DHT22;1721;51.238;9.562;2023-08-06T11:22:38;22.80;92.10
3416;DHT22;1721;51.238;9.562;2023-08-06T11:25:05;23.20;92.20
3416;DHT22;1721;51.238;9.562;2023-08-06T11:27:31;23.40;91.70
3416;DHT22;1721;51.238;9.562;2023-08-06T11:29:57;23.50;91.30
3416;DHT22;1721;51.238;9.562;2023-08-06T11:32:22;23.50;90.40
3416;DHT22;1721;51.238;9.562;2023-08-06T11:34:48;23.50;90.90
3416;DHT22;1721;51.238;9.562;2023-08-06T11:37:14;23.70;91.00
3416;DHT22;1721;51.238;9.562;2023-08-06T11:39:46;23.70;91.00
3416;DHT22;1721;51.238;9.562;2023-08-06T11:42:13;23.60;90.80
3416;DHT22;1721;51.238;9.562;2023-08-06T11:44:41;23.40;91.00
3416;DHT22;1721;51.238;9.562;2023-08-06T11:47:13;23.40;90.30
3416;DHT22;1721;51.238;9.562;2023-08-06T11:49:49;23.30;90.50
3416;DHT22;1721;51.238;9.562;2023-08-06T11:52:18;23.30;90.70
3416;DHT22;1721;51.238;9.562;2023-08-06T11:57:32;23.10;90.50
3416;DHT22;1721;51.238;9.562;2023-08-06T12:02:33;23.20;91.10
3416;DHT22;1721;51.238;9.562;2023-08-06T12:05:19;23.40;91.10
3416;DHT22;1721;51.238;9.562;2023-08-06T12:07:53;23.20;90.00
3416;DHT22;1721;51.238;9.562;2023-08-06T12:10:19;23.10;90.20
3416;DHT22;1721;51.238;9.562;2023-08-06T12:12:46;23.00;90.40
3416;DHT22;1721;51.238;9.562;2023-08-06T12:15:12;23.10;90.40
3416;DHT22;1721;51.238;9.562;2023-08-06T12:17:38;23.10;89.90
3416;DHT22;1721;51.238;9.562;2023-08-06T12:20:05;23.10;88.10
3416;DHT22;1721;51.238;9.562;2023-08-06T12:22:31;22.90;89.30
3416;DHT22;1721;51.238;9.562;2023-08-06T12:25:04;22.90;88.60
3416;DHT22;1721;51.238;9.562;2023-08-06T12:27:34;22.80;88.20
3416;DHT22;1721;51.238;9.562;2023-08-06T12:30:00;23.10;88.20
3416;DHT22;1721;51.238;9.562;2023-08-06T12:32:26;23.10;88.20
3416;DHT22;1721;51.238;9.562;2023-08-06T12:34:51;23.00;86.60
3416;DHT22;1721;51.238;9.562;2023-08-06T12:37:17;22.90;87.20
3416;DHT22;1721;51.238;9.562;2023-08-06T12:39:42;22.60;90.00
3416;DHT22;1721;51.238;9.562;2023-08-06T12:42:08;22.40;89.20
3416;DHT22;1721;51.238;9.562;2023-08-06T12:44:33;22.40;88.80
3416;DHT22;1721;51.238;9.562;2023-08-06T12:46:59;22.10;88.20
3416;DHT22;1721;51.238;9.562;2023-08-06T12:49:25;22.10;89.90
3416;DHT22;1721;51.238;9.562;2023-08-06T12:51:52;22.10;90.10
3416;DHT22;1721;51.238;9.562;2023-08-06T12:54:18;22.00;87.50
3416;DHT22;1721;51.238;9.562;2023-08-06T12:56:44;21.90;86.00
3416;DHT22;1721;51.238;9.562;2023-08-06T12:59:10;22.00;86.80
3416;DHT22;1721;51.238;9.562;2023-08-06T13:01:37;22.20;86.40
3416;DHT22;1721;51.238;9.562;2023-08-06T13:04:03;22.40;87.30
3416;DHT22;1721;51.238;9.562;2023-08-06T13:06:28;22.80;83.80
3416;DHT22;1721;51.238;9.562;2023-08-06T13:08:54;22.80;85.70
3416;DHT22;1721;51.238;9.562;2023-08-06T13:11:19;22.80;86.30
3416;DHT22;1721;51.238;9.562;2023-08-06T13:13:45;22.70;89.40
3416;DHT22;1721;51.238;9.562;2023-08-06T13:16:11;22.70;88.90
3416;DHT22;1721;51.238;9.562;2023-08-06T13:18:36;22.70;89.30
3416;DHT22;1721;51.238;9.562;2023-08-06T13:21:02;22.60;89.80
3416;DHT22;1721;51.238;9.562;2023-08-06T13:23:27;22.60;90.30
3416;DHT22;1721;51.238;9.562;2023-08-06T13:25:53;22.70;90.60
3416;DHT22;1721;51.238;9.562;2023-08-06T13:28:19;22.70;90.10
3416;DHT22;1721;51.238;9.562;2023-08-06T13:30:45;22.60;90.20
3416;DHT22;1721;51.238;9.562;2023-08-06T13:33:11;22.80;90.10
3416;DHT22;1721;51.238;9.562;2023-08-06T13:35:37;23.00;90.20
3416;DHT22;1721;51.238;9.562;2023-08-06T13:38:03;22.90;90.30
3416;DHT22;1721;51.238;9.562;2023-08-06T13:40:29;23.10;90.40
3416;DHT22;1721;51.238;9.562;2023-08-06T13:42:55;23.20;90.20
3416;DHT22;1721;51.238;9.562;2023-08-06T13:45:21;23.20;90.30
3416;DHT22;1721;51.238;9.562;2023-08-06T13:47:47;22.90;90.10
3416;DHT22;1721;51.238;9.562;2023-08-06T13:50:13;22.90;90.70
3416;DHT22;1721;51.238;9.562;2023-08-06T13:52:38;22.90;90.90
3416;DHT22;1721;51.238;9.562;2023-08-06T13:55:05;22.90;91.30
3416;DHT22;1721;51.238;9.562;2023-08-06T13:57:31;22.80;91.40
3416;DHT22;1721;51.238;9.562;2023-08-06T13:59:56;22.80;92.00
3416;DHT22;1721;51.238;9.562;2023-08-06T14:02:22;22.60;92.40
3416;DHT22;1721;51.238;9.562;2023-08-06T14:04:48;22.50;93.10
3416;DHT22;1721;51.238;9.562;2023-08-06T14:07:13;22.40;93.70
3416;DHT22;1721;51.238;9.562;2023-08-06T14:09:39;22.40;94.00
3416;DHT22;1721;51.238;9.562;2023-08-06T14:12:05;22.50;94.40
3416;DHT22;1721;51.238;9.562;2023-08-06T14:14:31;22.60;94.20
3416;DHT22;1721;51.238;9.562;2023-08-06T14:16:57;22.60;94.30
3416;DHT22;1721;51.238;9.562;2023-08-06T14:19:22;22.50;94.60
3416;DHT22;1721;51.238;9.562;2023-08-06T14:21:49;22.40;93.70
3416;DHT22;1721;51.238;9.562;2023-08-06T14:24:14;22.30;93.80
3416;DHT22;1721;51.238;9.562;2023-08-06T14:26:40;22.30;93.90
3416;DHT22;1721;51.238;9.562;2023-08-06T14:29:06;22.30;94.10
3416;DHT22;1721;51.238;9.562;2023-08-06T14:31:32;22.30;94.80
3416;DHT22;1721;51.238;9.562;2023-08-06T14:33:57;22.40;94.60
3416;DHT22;1721;51.238;9.562;2023-08-06T14:36:23;22.40;94.60
3416;DHT22;1721;51.238;9.562;2023-08-06T14:38:48;22.50;94.90
3416;DHT22;1721;51.238;9.562;2023-08-06T14:41:14;22.30;94.60
3416;DHT22;1721;51.238;9.562;2023-08-06T14:43:39;22.20;94.90
3416;DHT22;1721;51.238;9.562;2023-08-06T14:46:05;22.20;95.10
3416;DHT22;1721;51.238;9.562;2023-08-06T14:48:31;22.00;94.20
3416;DHT22;1721;51.238;9.562;2023-08-06T14:50:56;21.70;94.40
3416;DHT22;1721;51.238;9.562;2023-08-06T14:53:22;21.50;94.50
3416;DHT22;1721;51.238;9.562;2023-08-06T14:55:48;21.40;93.80
3416;DHT22;1721;51.238;9.562;2023-08-06T14:58:14;21.30;94.00
3416;DHT22;1721;51.238;9.562;2023-08-06T15:00:40;21.40;93.10
3416;DHT22;1721;51.238;9.562;2023-08-06T15:03:05;21.50;92.70
3416;DHT22;1721;51.238;9.562;2023-08-06T15:05:31;21.40;92.10
3416;DHT22;1721;51.238;9.562;2023-08-06T15:07:56;21.40;92.20
3416;DHT22;1721;51.238;9.562;2023-08-06T15:10:22;21.50;92.20
3416;DHT22;1721;51.238;9.562;2023-08-06T15:12:48;21.80;92.20
3416;DHT22;1721;51.238;9.562;2023-08-06T15:15:14;22.10;92.00
3416;DHT22;1721;51.238;9.562;2023-08-06T15:17:40;22.40;92.00
3416;DHT22;1721;51.238;9.562;2023-08-06T15:20:06;22.80;92.00
3416;DHT22;1721;51.238;9.562;2023-08-06T15:22:33;23.00;91.80
3416;DHT22;1721;51.238;9.562;2023-08-06T15:25:02;22.90;91.90
3416;DHT22;1721;51.238;9.562;2023-08-06T15:27:28;22.60;91.20
3416;DHT22;1721;51.238;9.562;2023-08-06T15:29:53;22.30;92.10
3416;DHT22;1721;51.238;9.562;2023-08-06T15:32:19;22.10;92.70
3416;DHT22;1721;51.238;9.562;2023-08-06T15:34:46;22.00;92.90
3416;DHT22;1721;51.238;9.562;2023-08-06T15:37:12;22.20;93.10
3416;DHT22;1721;51.238;9.562;2023-08-06T15:39:38;22.20;93.10
3416;DHT22;1721;51.238;9.562;2023-08-06T15:42:04;22.40;92.70
3416;DHT22;1721;51.238;9.562;2023-08-06T15:44:29;22.40;92.80
3416;DHT22;1721;51.238;9.562;2023-08-06T15:46:55;22.40;92.80
3416;DHT22;1721;51.238;9.562;2023-08-06T15:49:20;22.20;92.50
3416;DHT22;1721;51.238;9.562;2023-08-06T15:51:46;22.00;93.20
3416;DHT22;1721;51.238;9.562;2023-08-06T15:54:12;22.00;93.10
3416;DHT22;1721;51.238;9.562;2023-08-06T15:56:37;21.90;93.30
3416;DHT22;1721;51.238;9.562;2023-08-06T15:59:25;21.60;93.30
3416;DHT22;1721;51.238;9.562;2023-08-06T16:01:59;21.40;93.60
3416;DHT22;1721;51.238;9.562;2023-08-06T16:04:27;21.10;94.20
3416;DHT22;1721;51.238;9.562;2023-08-06T16:06:53;20.90;94.70
3416;DHT22;1721;51.238;9.562;2023-08-06T16:09:18;20.70;95.00
3416;DHT22;1721;51.238;9.562;2023-08-06T16:11:46;20.50;96.30